createdAt,value
2023-04-09T00:02:00.576Z,100027.53
2023-04-09T00:04:27.151Z,100031.75
2023-04-09T00:06:53.598Z,100026.97
2023-04-09T00:09:20.780Z,100023.31
2023-04-09T00:11:47.231Z,100018.22
2023-04-09T00:14:13.618Z,100024.88
2023-04-09T00:16:40.609Z,100022.25
2023-04-09T00:19:07.647Z,100018.09
2023-04-09T00:21:34.115Z,100014.31
2023-04-09T00:24:00.591Z,100021.31
2023-04-09T00:26:27.353Z,100018.34
2023-04-09T00:28:54.114Z,100013.69
2023-04-09T00:31:20.991Z,100023.38
2023-04-09T00:33:47.480Z,100021.47
2023-04-09T00:36:14.001Z,100013.16
2023-04-09T00:38:40.785Z,100011.25
2023-04-09T00:41:07.329Z,100016.03
2023-04-09T00:43:33.771Z,100017.81
2023-04-09T00:46:00.688Z,100023.25
2023-04-09T00:48:27.607Z,100017.16
2023-04-09T00:50:54.167Z,100026.69
2023-04-09T00:53:20.648Z,100014.59
2023-04-09T00:55:47.133Z,100018.25
2023-04-09T00:58:13.995Z,100023.34
2023-04-09T01:00:40.603Z,100021.34
2023-04-09T01:03:07.572Z,100021.13
2023-04-09T01:05:49.291Z,100022.75
2023-04-09T01:08:32.448Z,100017.75
2023-04-09T01:11:38.319Z,100017.16
2023-04-09T01:14:22.974Z,100016.53
2023-04-09T01:16:53.510Z,100018.03
2023-04-09T01:19:42.173Z,100008.38
2023-04-09T01:22:19.281Z,100010.63
2023-04-09T01:25:01.030Z,100009.94
2023-04-09T01:27:36.644Z,100002.91
2023-04-09T01:30:04.762Z,100003.94
2023-04-09T01:32:33.512Z,100005.91
2023-04-09T01:35:00.299Z,99999.84
2023-04-09T01:37:27.121Z,100007.63
2023-04-09T01:39:53.785Z,100010.84
2023-04-09T01:42:20.815Z,100013.41
2023-04-09T01:44:47.614Z,100008.09
2023-04-09T01:47:14.149Z,100013.50
2023-04-09T01:49:41.541Z,100011.41
2023-04-09T01:52:08.937Z,100014.72
2023-04-09T01:54:35.551Z,100015.75
2023-04-09T01:57:01.987Z,100018.03
2023-04-09T01:59:28.436Z,100015.84
2023-04-09T02:01:59.528Z,100011.13
2023-04-09T02:04:33.684Z,100016.50
2023-04-09T02:07:05.992Z,100015.63
2023-04-09T02:09:34.309Z,100008.13
2023-04-09T02:12:03.668Z,100011.50
2023-04-09T02:14:32.229Z,100017.78
2023-04-09T02:16:59.957Z,100010.38
2023-04-09T02:19:39.125Z,100013.72
2023-04-09T02:22:05.666Z,100005.63
2023-04-09T02:24:32.107Z,100012.69
2023-04-09T02:26:58.539Z,100016.19
2023-04-09T02:29:25.430Z,100005.44
2023-04-09T02:31:53.146Z,100007.75
2023-04-09T02:34:20.275Z,100006.94
2023-04-09T02:36:46.717Z,100012.47
2023-04-09T02:39:13.170Z,100005.94
2023-04-09T02:41:40.982Z,100001.91
2023-04-09T02:44:07.506Z,100001.31
2023-04-09T02:46:34.134Z,99999.63
2023-04-09T02:49:00.622Z,99999.53
2023-04-09T02:51:27.491Z,100002.22
2023-04-09T02:53:53.902Z,100005.16
2023-04-09T02:56:20.528Z,99996.81
2023-04-09T02:58:49.419Z,100013.44
2023-04-09T03:01:16.033Z,100006.03
2023-04-09T03:03:43.059Z,100000.59
2023-04-09T03:06:09.646Z,100011.09
2023-04-09T03:08:36.060Z,100006.53
2023-04-09T03:11:02.714Z,100000.00
2023-04-09T03:13:29.175Z,99995.56
2023-04-09T03:15:55.700Z,100003.06
2023-04-09T03:18:22.148Z,99989.34
2023-04-09T03:20:48.597Z,99996.47
2023-04-09T03:23:15.337Z,99990.63
2023-04-09T03:25:41.762Z,99992.56
2023-04-09T03:28:08.189Z,99986.06
2023-04-09T03:30:34.687Z,99990.25
2023-04-09T03:33:01.100Z,99991.16
2023-04-09T03:35:27.586Z,99997.00
2023-04-09T03:37:54.022Z,99997.81
2023-04-09T03:40:20.408Z,100002.25
2023-04-09T03:42:46.843Z,99997.41
2023-04-09T03:45:13.270Z,100004.16
2023-04-09T03:47:39.806Z,99997.78
2023-04-09T03:50:06.890Z,99994.88
2023-04-09T03:52:33.378Z,99996.78
2023-04-09T03:54:59.900Z,99994.47
2023-04-09T03:57:26.326Z,100000.06
2023-04-09T03:59:52.764Z,99990.44
2023-04-09T04:02:19.403Z,99998.31
2023-04-09T04:04:46.245Z,99999.56
2023-04-09T04:07:12.690Z,99997.41
2023-04-09T04:09:39.071Z,99996.78
2023-04-09T04:12:05.687Z,99997.66
2023-04-09T04:14:32.118Z,100004.63
2023-04-09T04:16:58.569Z,100000.19
2023-04-09T04:19:25.159Z,99998.66
2023-04-09T04:21:51.689Z,99997.16
2023-04-09T04:24:18.104Z,99997.50
2023-04-09T04:26:44.711Z,100005.88
2023-04-09T04:29:11.334Z,100000.03
2023-04-09T04:31:37.846Z,100004.88
2023-04-09T04:34:04.371Z,99998.00
2023-04-09T04:36:31.020Z,100003.59
2023-04-09T04:38:57.412Z,100003.09
2023-04-09T04:41:23.869Z,100000.56
2023-04-09T04:43:50.303Z,100010.94
2023-04-09T04:46:16.843Z,100010.22
2023-04-09T04:48:43.343Z,100021.78
2023-04-09T04:51:09.797Z,100021.13
2023-04-09T04:53:36.187Z,100022.13
2023-04-09T04:56:02.631Z,100023.97
2023-04-09T04:58:30.362Z,100022.91
2023-04-09T05:00:56.787Z,100026.28
2023-04-09T05:03:25.286Z,100024.22
2023-04-09T05:05:53.355Z,100023.97
2023-04-09T05:08:19.778Z,100021.94
2023-04-09T05:10:46.838Z,100023.09
2023-04-09T05:13:13.242Z,100029.69
2023-04-09T05:15:40.622Z,100030.31
2023-04-09T05:18:08.145Z,100031.09
2023-04-09T05:20:35.295Z,100030.56
2023-04-09T05:23:01.852Z,100027.78
2023-04-09T05:25:28.313Z,100026.38
2023-04-09T05:27:54.747Z,100027.78
2023-04-09T05:30:21.536Z,100033.25
2023-04-09T05:32:47.969Z,100032.50
2023-04-09T05:35:14.456Z,100030.69
2023-04-09T05:37:41.187Z,100031.19
2023-04-09T05:40:08.252Z,100026.66
2023-04-09T05:42:34.673Z,100025.25
2023-04-09T05:45:01.126Z,100029.16
2023-04-09T05:47:27.659Z,100027.75
2023-04-09T05:49:54.230Z,100033.84
2023-04-09T05:52:21.442Z,100031.53
2023-04-09T05:54:47.913Z,100028.00
2023-04-09T05:57:14.752Z,100039.31
2023-04-09T05:59:41.186Z,100035.47
2023-04-09T06:02:07.655Z,100041.09
2023-04-09T06:04:34.298Z,100035.59
2023-04-09T06:07:01.350Z,100040.13
2023-04-09T06:09:27.922Z,100033.84
2023-04-09T06:11:54.397Z,100033.97
2023-04-09T06:14:20.847Z,100034.94
2023-04-09T06:16:47.278Z,100029.41
2023-04-09T06:19:16.241Z,100042.22
2023-04-09T06:21:42.682Z,100031.94
2023-04-09T06:24:09.204Z,100030.34
2023-04-09T06:26:35.752Z,100032.53
2023-04-09T06:29:02.182Z,100033.75
2023-04-09T06:31:28.667Z,100032.16
2023-04-09T06:33:55.804Z,100034.28
2023-04-09T06:36:22.975Z,100037.50
2023-04-09T06:38:49.416Z,100039.31
2023-04-09T06:41:16.184Z,100028.78
2023-04-09T06:43:42.646Z,100031.56
2023-04-09T06:46:09.330Z,100033.09
2023-04-09T06:48:36.050Z,100038.97
2023-04-09T06:51:02.505Z,100036.38
2023-04-09T06:53:28.994Z,100031.31
2023-04-09T06:55:57.098Z,100039.56
2023-04-09T06:58:23.729Z,100039.75
2023-04-09T07:00:50.278Z,100035.53
2023-04-09T07:03:16.924Z,100026.28
2023-04-09T07:05:43.488Z,100035.59
2023-04-09T07:08:09.963Z,100030.94
2023-04-09T07:10:36.815Z,100037.97
2023-04-09T07:13:03.348Z,100034.00
2023-04-09T07:15:29.798Z,100038.94
2023-04-09T07:17:57.674Z,100043.09
2023-04-09T07:20:24.224Z,100039.22
2023-04-09T07:22:50.844Z,100043.38
2023-04-09T07:25:17.285Z,100036.97
2023-04-09T07:27:44.486Z,100039.84
2023-04-09T07:30:11.154Z,100040.16
2023-04-09T07:32:38.089Z,100035.84
2023-04-09T07:35:07.862Z,100044.50
2023-04-09T07:37:34.299Z,100044.09
2023-04-09T07:40:00.954Z,100045.72
2023-04-09T07:42:28.213Z,100045.47
2023-04-09T07:44:54.716Z,100046.00
2023-04-09T07:47:21.656Z,100036.97
2023-04-09T07:49:48.130Z,100047.56
2023-04-09T07:52:14.801Z,100037.94
2023-04-09T07:54:41.372Z,100034.56
2023-04-09T07:57:07.845Z,100037.13
2023-04-09T07:59:34.910Z,100039.53
2023-04-09T08:02:02.432Z,100040.94
2023-04-09T08:04:29.040Z,100040.94
2023-04-09T08:06:55.699Z,100046.44
2023-04-09T08:09:22.160Z,100042.53
2023-04-09T08:11:48.990Z,100039.88
2023-04-09T08:14:16.937Z,100042.38
2023-04-09T08:16:45.046Z,100047.63
2023-04-09T08:19:11.912Z,100045.44
2023-04-09T08:21:39.465Z,100038.38
2023-04-09T08:24:07.044Z,100044.66
2023-04-09T08:26:33.456Z,100046.56
2023-04-09T08:29:00.006Z,100043.38
2023-04-09T08:31:27.306Z,100036.75
2023-04-09T08:33:53.774Z,100048.00
2023-04-09T08:36:21.487Z,100050.50
2023-04-09T08:38:48.609Z,100049.84
2023-04-09T08:41:19.998Z,100041.25
2023-04-09T08:43:57.765Z,100051.00
2023-04-09T08:46:26.504Z,100046.47
2023-04-09T08:48:53.967Z,100044.88
2023-04-09T08:51:22.152Z,100029.41
2023-04-09T08:53:52.662Z,100044.97
2023-04-09T08:56:19.591Z,100039.13
2023-04-09T08:58:46.826Z,100032.13
2023-04-09T09:01:20.819Z,100031.31
2023-04-09T09:04:03.755Z,100028.75
2023-04-09T09:06:35.873Z,100029.81
2023-04-09T09:09:16.307Z,100032.13
2023-04-09T09:11:43.857Z,100024.00
2023-04-09T09:14:11.593Z,100026.72
2023-04-09T09:16:43.745Z,100018.84
2023-04-09T09:19:28.673Z,100018.72
2023-04-09T09:21:59.849Z,100014.47
2023-04-09T09:24:26.400Z,100007.81
2023-04-09T09:26:54.448Z,100008.59
2023-04-09T09:29:21.223Z,100009.41
2023-04-09T09:31:51.550Z,100002.50
2023-04-09T09:34:19.065Z,100007.84
2023-04-09T09:36:46.443Z,100004.16
2023-04-09T09:39:14.214Z,100000.19
2023-04-09T09:41:43.928Z,100005.50
2023-04-09T09:44:11.925Z,100002.28
2023-04-09T09:46:40.646Z,100004.06
2023-04-09T09:49:07.819Z,100000.66
2023-04-09T09:51:37.428Z,99999.84
2023-04-09T09:54:04.028Z,99998.81
2023-04-09T09:56:34.669Z,100001.34
2023-04-09T09:59:17.458Z,99992.81
2023-04-09T10:01:44.737Z,99990.56
2023-04-09T10:04:14.476Z,99987.06
2023-04-09T10:06:45.083Z,99997.31
2023-04-09T10:09:11.870Z,99997.00
2023-04-09T10:11:42.380Z,99992.16
2023-04-09T10:14:09.701Z,99988.84
2023-04-09T10:16:36.148Z,99982.78
2023-04-09T10:19:03.292Z,99984.69
2023-04-09T10:21:42.574Z,99979.84
2023-04-09T10:24:09.471Z,99978.63
2023-04-09T10:26:40.139Z,99975.84
2023-04-09T10:29:14.588Z,99970.44
2023-04-09T10:31:54.818Z,99972.13
2023-04-09T10:34:23.553Z,99977.28
2023-04-09T10:36:54.955Z,99966.03
2023-04-09T10:39:21.758Z,99970.84
2023-04-09T10:41:49.232Z,99973.03
2023-04-09T10:44:27.048Z,99964.47
2023-04-09T10:46:56.597Z,99968.72
2023-04-09T10:49:27.087Z,99965.63
2023-04-09T10:51:53.512Z,99962.16
2023-04-09T10:54:34.981Z,99955.72
2023-04-09T10:57:07.325Z,99956.94
2023-04-09T10:59:34.428Z,99954.66
2023-04-09T11:02:00.971Z,99954.03
2023-04-09T11:05:10.493Z,99958.88
2023-04-09T11:07:40.703Z,99954.66
2023-04-09T11:10:07.713Z,99957.06
2023-04-09T11:12:34.131Z,99953.59
2023-04-09T11:15:00.659Z,99958.94
2023-04-09T11:17:27.441Z,99954.53
2023-04-09T11:19:55.572Z,99950.34
2023-04-09T11:22:22.244Z,99946.53
2023-04-09T11:24:50.714Z,99950.56
2023-04-09T11:27:19.494Z,99945.59
2023-04-09T11:29:45.896Z,99939.13
2023-04-09T11:32:12.589Z,99941.16
2023-04-09T11:34:39.022Z,99938.00
2023-04-09T11:37:09.060Z,99932.94
2023-04-09T11:39:38.617Z,99934.09
2023-04-09T11:42:05.210Z,99930.00
2023-04-09T11:44:31.656Z,99931.97
2023-04-09T11:46:59.026Z,99929.03
2023-04-09T11:49:25.628Z,99936.38
2023-04-09T11:51:52.194Z,99935.19
2023-04-09T11:54:18.737Z,99931.97
2023-04-09T11:56:45.158Z,99935.28
2023-04-09T11:59:14.481Z,99932.72
2023-04-09T12:01:41.704Z,99922.84
2023-04-09T12:04:09.457Z,99925.84
2023-04-09T12:06:40.374Z,99925.34
2023-04-09T12:09:08.775Z,99924.25
2023-04-09T12:11:37.117Z,99921.38
2023-04-09T12:14:04.358Z,99923.56
2023-04-09T12:16:34.764Z,99919.53
2023-04-09T12:19:03.074Z,99921.84
2023-04-09T12:21:47.983Z,99919.22
2023-04-09T12:24:15.336Z,99924.78
2023-04-09T12:26:41.770Z,99921.06
2023-04-09T12:29:08.349Z,99922.44
2023-04-09T12:31:34.789Z,99909.25
2023-04-09T12:34:01.205Z,99915.09
2023-04-09T12:36:27.710Z,99910.44
2023-04-09T12:38:54.136Z,99908.66
2023-04-09T12:41:20.634Z,99899.41
2023-04-09T12:43:47.972Z,99895.66
2023-04-09T12:46:14.409Z,99893.25
2023-04-09T12:48:40.836Z,99899.09
2023-04-09T12:51:07.388Z,99890.16
2023-04-09T12:53:34.023Z,99895.59
2023-04-09T12:56:01.316Z,99894.22
2023-04-09T12:58:27.824Z,99891.28
2023-04-09T13:00:54.594Z,99891.22
2023-04-09T13:03:21.533Z,99880.28
2023-04-09T13:05:48.996Z,99889.13
2023-04-09T13:08:16.113Z,99882.16
2023-04-09T13:10:42.700Z,99875.69
2023-04-09T13:13:12.121Z,99883.22
2023-04-09T13:15:39.618Z,99879.25
2023-04-09T13:18:06.106Z,99880.47
2023-04-09T13:20:32.606Z,99867.69
2023-04-09T13:22:59.053Z,99860.84
2023-04-09T13:25:25.451Z,99860.84
2023-04-09T13:27:51.896Z,99861.97
2023-04-09T13:30:18.621Z,99862.78
2023-04-09T13:32:45.053Z,99859.31
2023-04-09T13:35:11.624Z,99859.66
2023-04-09T13:37:38.093Z,99856.28
2023-04-09T13:40:05.025Z,99852.28
2023-04-09T13:42:32.093Z,99853.81
2023-04-09T13:44:58.724Z,99856.44
2023-04-09T13:47:25.142Z,99853.06
2023-04-09T13:49:52.990Z,99849.00
2023-04-09T13:52:19.477Z,99855.56
2023-04-09T13:54:45.976Z,99852.16
2023-04-09T13:57:12.455Z,99850.00
2023-04-09T13:59:38.915Z,99839.66
2023-04-09T14:02:05.488Z,99834.56
2023-04-09T14:04:31.972Z,99830.91
2023-04-09T14:06:58.407Z,99825.69
2023-04-09T14:09:24.883Z,99824.34
2023-04-09T14:11:51.436Z,99830.03
2023-04-09T14:14:17.985Z,99839.94
2023-04-09T14:16:44.444Z,99839.41
2023-04-09T14:19:10.910Z,99822.69
2023-04-09T14:21:37.321Z,99815.91
2023-04-09T14:24:03.854Z,99808.94
2023-04-09T14:26:30.322Z,99810.16
2023-04-09T14:28:56.776Z,99814.13
2023-04-09T14:31:23.316Z,99819.81
2023-04-09T14:33:49.918Z,99827.09
2023-04-09T14:36:16.669Z,99820.91
2023-04-09T14:38:43.150Z,99809.44
2023-04-09T14:41:09.850Z,99798.56
2023-04-09T14:43:36.318Z,99806.34
2023-04-09T14:46:03.977Z,99810.88
2023-04-09T14:48:30.695Z,99799.03
2023-04-09T14:50:57.214Z,99810.53
2023-04-09T14:53:23.673Z,99802.97
2023-04-09T14:55:50.294Z,99801.72
2023-04-09T14:58:17.054Z,99807.44
2023-04-09T15:00:44.952Z,99798.31
2023-04-09T15:03:11.946Z,99791.59
2023-04-09T15:05:38.720Z,99790.84
2023-04-09T15:08:05.171Z,99800.03
2023-04-09T15:10:31.668Z,99790.03
2023-04-09T15:12:58.107Z,99783.78
2023-04-09T15:15:24.653Z,99779.81
2023-04-09T15:17:51.445Z,99783.44
2023-04-09T15:20:18.406Z,99786.78
2023-04-09T15:22:44.885Z,99780.44
2023-04-09T15:25:13.759Z,99785.47
2023-04-09T15:27:40.815Z,99780.91
2023-04-09T15:30:08.037Z,99780.88
2023-04-09T15:32:34.528Z,99782.72
2023-04-09T15:35:01.303Z,99784.44
2023-04-09T15:37:27.728Z,99796.44
2023-04-09T15:39:54.146Z,99794.25
2023-04-09T15:42:22.836Z,99795.88
2023-04-09T15:44:50.303Z,99795.38
2023-04-09T15:47:17.135Z,99799.88
2023-04-09T15:49:43.887Z,99794.00
2023-04-09T15:52:10.446Z,99785.50
2023-04-09T15:54:36.942Z,99796.53
2023-04-09T15:57:04.165Z,99794.66
2023-04-09T15:59:30.755Z,99795.88
2023-04-09T16:01:57.319Z,99782.19
2023-04-09T16:04:23.807Z,99789.25
2023-04-09T16:06:50.268Z,99799.75
2023-04-09T16:09:16.756Z,99792.16
2023-04-09T16:11:43.188Z,99790.69
2023-04-09T16:14:09.646Z,99800.09
2023-04-09T16:16:36.827Z,99806.22
2023-04-09T16:19:03.378Z,99808.72
2023-04-09T16:21:29.813Z,99801.84
2023-04-09T16:23:56.366Z,99801.41
2023-04-09T16:26:22.796Z,99799.59
2023-04-09T16:28:49.256Z,99812.09
2023-04-09T16:31:15.983Z,99807.03
2023-04-09T16:33:42.831Z,99800.25
2023-04-09T16:36:09.281Z,99813.31
2023-04-09T16:38:36.369Z,99808.84
2023-04-09T16:41:02.772Z,99815.25
2023-04-09T16:43:29.897Z,99817.19
2023-04-09T16:45:56.421Z,99807.06
2023-04-09T16:48:23.884Z,99812.97
2023-04-09T16:50:50.352Z,99817.66
2023-04-09T16:53:16.799Z,99819.19
2023-04-09T16:55:44.739Z,99815.63
2023-04-09T16:58:11.134Z,99815.41
2023-04-09T17:00:37.870Z,99812.41
2023-04-09T17:03:04.509Z,99815.44
2023-04-09T17:05:31.270Z,99812.56
2023-04-09T17:07:57.753Z,99805.06
2023-04-09T17:10:24.250Z,99811.31
2023-04-09T17:12:50.770Z,99811.88
2023-04-09T17:15:17.741Z,99810.91
2023-04-09T17:17:45.671Z,99808.28
2023-04-09T17:20:12.687Z,99810.19
2023-04-09T17:22:39.294Z,99805.13
2023-04-09T17:25:06.180Z,99797.41
2023-04-09T17:27:32.684Z,99803.25
2023-04-09T17:29:59.202Z,99802.66
2023-04-09T17:32:25.956Z,99812.00
2023-04-09T17:34:52.560Z,99812.63
2023-04-09T17:37:19.780Z,99813.44
2023-04-09T17:39:46.379Z,99806.25
2023-04-09T17:42:12.842Z,99809.22
2023-04-09T17:44:39.321Z,99818.38
2023-04-09T17:47:07.294Z,99823.59
2023-04-09T17:49:33.801Z,99825.91
2023-04-09T17:52:00.333Z,99824.13
2023-04-09T17:54:26.809Z,99831.00
2023-04-09T17:56:53.205Z,99834.06
2023-04-09T17:59:20.470Z,99833.50
2023-04-09T18:01:47.003Z,99829.44
2023-04-09T18:04:13.955Z,99836.28
2023-04-09T18:06:40.689Z,99834.72
2023-04-09T18:09:07.482Z,99846.78
2023-04-09T18:11:36.172Z,99851.53
2023-04-09T18:14:07.715Z,99851.13
2023-04-09T18:16:38.435Z,99849.50
2023-04-09T18:19:05.947Z,99850.28
2023-04-09T18:21:32.466Z,99848.81
2023-04-09T18:23:59.144Z,99853.84
2023-04-09T18:26:25.691Z,99842.53
2023-04-09T18:28:52.306Z,99855.66
2023-04-09T18:31:19.023Z,99854.34
2023-04-09T18:33:45.522Z,99852.19
2023-04-09T18:36:12.108Z,99867.59
2023-04-09T18:38:39.335Z,99862.81
2023-04-09T18:41:05.799Z,99871.06
2023-04-09T18:43:32.212Z,99869.28
2023-04-09T18:45:59.089Z,99864.59
2023-04-09T18:48:25.921Z,99865.38
2023-04-09T18:50:52.366Z,99854.63
2023-04-09T18:53:18.744Z,99859.03
2023-04-09T18:55:46.372Z,99858.84
2023-04-09T18:58:13.853Z,99862.91
2023-04-09T19:00:40.504Z,99862.31
2023-04-09T19:03:07.783Z,99870.03
2023-04-09T19:05:35.234Z,99875.94
2023-04-09T19:08:03.156Z,99877.28
2023-04-09T19:10:29.607Z,99864.38
2023-04-09T19:12:56.096Z,99869.81
2023-04-09T19:15:26.005Z,99869.78
2023-04-09T19:17:52.991Z,99873.50
2023-04-09T19:20:19.851Z,99873.22
2023-04-09T19:22:50.299Z,99861.25
2023-04-09T19:25:18.146Z,99862.06
2023-04-09T19:27:45.350Z,99859.91
2023-04-09T19:30:12.395Z,99863.88
2023-04-09T19:32:39.048Z,99856.00
2023-04-09T19:35:07.069Z,99859.38
2023-04-09T19:37:34.725Z,99860.28
2023-04-09T19:40:04.339Z,99855.78
2023-04-09T19:42:34.649Z,99859.69
2023-04-09T19:45:01.082Z,99853.31
2023-04-09T19:47:28.151Z,99848.53
2023-04-09T19:49:54.653Z,99845.84
2023-04-09T19:52:21.199Z,99848.66
2023-04-09T19:54:47.664Z,99843.97
2023-04-09T19:57:15.199Z,99849.41
2023-04-09T19:59:41.673Z,99856.56
2023-04-09T20:02:08.341Z,99858.19
2023-04-09T20:04:34.834Z,99862.03
2023-04-09T20:07:01.289Z,99857.56
2023-04-09T20:09:29.034Z,99865.19
2023-04-09T20:11:55.555Z,99870.53
2023-04-09T20:14:22.039Z,99870.31
2023-04-09T20:16:48.551Z,99872.16
2023-04-09T20:19:15.204Z,99875.66
2023-04-09T20:21:43.498Z,99871.53
2023-04-09T20:24:09.949Z,99868.81
2023-04-09T20:26:36.602Z,99863.97
2023-04-09T20:29:03.113Z,99863.00
2023-04-09T20:31:30.873Z,99861.34
2023-04-09T20:33:57.433Z,99859.25
2023-04-09T20:36:23.840Z,99865.16
2023-04-09T20:38:50.243Z,99860.25
2023-04-09T20:41:16.644Z,99858.94
2023-04-09T20:43:43.074Z,99851.59
2023-04-09T20:46:09.669Z,99850.75
2023-04-09T20:48:36.231Z,99846.56
2023-04-09T20:51:08.032Z,99847.06
2023-04-09T20:53:34.434Z,99842.03
2023-04-09T20:56:02.003Z,99841.13
2023-04-09T20:58:28.399Z,99838.69
2023-04-09T21:01:06.566Z,99838.13
2023-04-09T21:03:34.611Z,99839.03
2023-04-09T21:06:01.607Z,99845.16
2023-04-09T21:08:29.067Z,99837.56
2023-04-09T21:10:56.012Z,99840.69
2023-04-09T21:13:23.566Z,99834.38
2023-04-09T21:15:50.192Z,99835.97
2023-04-09T21:18:17.306Z,99835.78
2023-04-09T21:20:45.753Z,99838.53
2023-04-09T21:23:12.738Z,99838.84
2023-04-09T21:25:39.187Z,99841.97
2023-04-09T21:28:06.332Z,99843.97
2023-04-09T21:30:37.912Z,99847.56
2023-04-09T21:33:06.580Z,99845.69
2023-04-09T21:35:33.820Z,99841.88
2023-04-09T21:38:00.423Z,99836.56
2023-04-09T21:40:27.186Z,99832.53
2023-04-09T21:42:53.620Z,99842.75
2023-04-09T21:45:20.060Z,99839.50
2023-04-09T21:47:46.874Z,99837.59
2023-04-09T21:50:14.949Z,99838.94
2023-04-09T21:52:41.906Z,99838.66
2023-04-09T21:55:10.168Z,99840.38
2023-04-09T21:57:36.943Z,99839.25
2023-04-09T22:00:05.025Z,99829.28
2023-04-09T22:02:31.684Z,99832.44
2023-04-09T22:05:01.361Z,99836.84
2023-04-09T22:07:27.968Z,99834.91
2023-04-09T22:09:57.682Z,99833.06
2023-04-09T22:12:24.098Z,99834.47
2023-04-09T22:14:50.890Z,99836.00
2023-04-09T22:17:17.568Z,99833.19
2023-04-09T22:19:44.086Z,99832.69
2023-04-09T22:22:13.406Z,99833.13
2023-04-09T22:24:39.889Z,99827.47
2023-04-09T22:27:06.479Z,99826.91
2023-04-09T22:29:33.816Z,99826.75
2023-04-09T22:32:00.437Z,99827.81
2023-04-09T22:34:26.871Z,99826.38
2023-04-09T22:36:53.313Z,99832.91
2023-04-09T22:39:19.820Z,99833.13
2023-04-09T22:41:46.266Z,99828.91
2023-04-09T22:44:12.674Z,99831.25
2023-04-09T22:46:39.123Z,99827.97
2023-04-09T22:49:06.236Z,99823.31
2023-04-09T22:51:34.421Z,99826.50
2023-04-09T22:54:01.812Z,99825.81
2023-04-09T22:56:28.646Z,99825.38
2023-04-09T22:58:55.279Z,99818.53
2023-04-09T23:01:22.142Z,99816.53
2023-04-09T23:03:49.964Z,99811.19
2023-04-09T23:06:19.409Z,99814.72
2023-04-09T23:08:46.449Z,99815.59
2023-04-09T23:11:12.978Z,99820.28
2023-04-09T23:13:39.501Z,99823.16
2023-04-09T23:16:07.510Z,99831.59
2023-04-09T23:18:35.364Z,99833.81
2023-04-09T23:21:06.918Z,99835.72
2023-04-09T23:23:34.199Z,99835.63
2023-04-09T23:26:00.921Z,99831.59
2023-04-09T23:28:27.589Z,99837.59
2023-04-09T23:30:54.516Z,99843.81
2023-04-09T23:33:20.961Z,99844.00
2023-04-09T23:35:47.821Z,99844.34
2023-04-09T23:38:15.433Z,99843.47
2023-04-09T23:40:42.196Z,99841.94
2023-04-09T23:43:08.891Z,99836.03
2023-04-09T23:45:35.617Z,99835.84
2023-04-09T23:48:03.239Z,99838.06
2023-04-09T23:50:30.310Z,99840.94
2023-04-09T23:52:59.875Z,99841.59
2023-04-09T23:55:27.108Z,99842.94
2023-04-09T23:57:53.747Z,99836.28
